Terminal Aerodrome Forecast
Issued by NWS Mt. Holly, NJ

Home | Current Version | Previous Version | Text Only | Print | Product List | Glossary On
Versions: 1 2 3 4 5 6 7 8 9 10 11 12 13 14 15 16 17 18 19 20
000
FTUS41 KPHI 011700 RRA
TAFILG
TAF
KILG 011750Z 0118/0218 23004KT P6SM OVC050
     FM020200 10005KT 2SM -SN BKN025
      TEMPO 0206/0208 -FZRASN BKN007
     FM020800 11005KT 2SM RA BKN007
      TEMPO 0210/0214 1SM +RA BKN004
     FM021400 24008KT 2SM RA BKN009=

USA.gov is the U.S. government's official web portal to all federal, state and local government web resources and services.